createdAt,value
2023-02-24T00:00:54.820Z,511.00
2023-02-24T00:01:54.854Z,507.00
2023-02-24T00:02:54.862Z,507.00
2023-02-24T00:03:54.907Z,504.00
2023-02-24T00:04:53.987Z,505.00
2023-02-24T00:05:54.992Z,503.00
2023-02-24T00:06:55.030Z,503.00
2023-02-24T00:07:55.060Z,503.00
2023-02-24T00:08:55.093Z,509.00
2023-02-24T00:09:55.133Z,503.00
2023-02-24T00:10:55.161Z,504.00
2023-02-24T00:11:54.204Z,509.00
2023-02-24T00:12:55.235Z,509.00
2023-02-24T00:13:55.271Z,510.00
2023-02-24T00:14:55.308Z,500.00
2023-02-24T00:15:55.365Z,508.00
2023-02-24T00:16:55.480Z,505.00
2023-02-24T00:17:55.410Z,505.00
2023-02-24T00:18:55.406Z,511.00
2023-02-24T00:19:55.460Z,514.00
2023-02-24T00:20:55.568Z,508.00
2023-02-24T00:21:54.543Z,512.00
2023-02-24T00:22:55.538Z,508.00
2023-02-24T00:23:55.556Z,507.00
2023-02-24T00:24:54.621Z,508.00
2023-02-24T00:25:55.634Z,505.00
2023-02-24T00:26:54.670Z,508.00
2023-02-24T00:27:55.716Z,507.00
2023-02-24T00:28:55.716Z,508.00
2023-02-24T00:29:54.768Z,506.00
2023-02-24T00:30:55.903Z,504.00
2023-02-24T00:31:56.014Z,502.00
2023-02-24T00:32:55.953Z,506.00
2023-02-24T00:33:54.887Z,506.00
2023-02-24T00:34:55.931Z,506.00
2023-02-24T00:35:55.977Z,507.00
2023-02-24T00:36:55.031Z,507.00
2023-02-24T00:37:56.052Z,501.00
2023-02-24T00:38:56.126Z,501.00
2023-02-24T00:39:56.143Z,510.00
2023-02-24T00:40:55.306Z,507.00
2023-02-24T00:41:56.235Z,509.00
2023-02-24T00:42:56.299Z,505.00
2023-02-24T00:43:56.326Z,510.00
2023-02-24T00:44:56.381Z,514.00
2023-02-24T00:45:55.448Z,513.00
2023-02-24T00:46:56.459Z,504.00
2023-02-24T00:47:56.498Z,512.00
2023-02-24T00:48:56.521Z,507.00
2023-02-24T00:49:55.588Z,508.00
2023-02-24T00:50:56.584Z,512.00
2023-02-24T00:51:55.640Z,508.00
2023-02-24T00:52:55.720Z,508.00
2023-02-24T00:53:56.677Z,506.00
2023-02-24T00:54:56.739Z,512.00
2023-02-24T00:55:56.751Z,510.00
2023-02-24T00:56:56.785Z,508.00
2023-02-24T00:57:56.837Z,507.00
2023-02-24T00:58:56.825Z,508.00
2023-02-24T00:59:56.872Z,504.00
2023-02-24T01:00:56.886Z,506.00
2023-02-24T01:01:56.016Z,511.00
2023-02-24T01:02:56.928Z,514.00
2023-02-24T01:03:57.280Z,509.00
2023-02-24T01:04:57.006Z,506.00
2023-02-24T01:05:57.023Z,510.00
2023-02-24T01:06:57.047Z,506.00
2023-02-24T01:07:57.092Z,506.00
2023-02-24T01:08:57.108Z,509.00
2023-02-24T01:09:56.130Z,505.00
2023-02-24T01:10:57.152Z,504.00
2023-02-24T01:11:57.266Z,510.00
2023-02-24T01:12:57.224Z,512.00
2023-02-24T01:13:57.259Z,515.00
2023-02-24T01:14:57.276Z,510.00
2023-02-24T01:15:57.313Z,510.00
2023-02-24T01:16:57.316Z,503.00
2023-02-24T01:17:57.524Z,508.00
2023-02-24T01:18:57.404Z,505.00
2023-02-24T01:19:57.390Z,507.00
2023-02-24T01:20:57.406Z,509.00
2023-02-24T01:21:57.428Z,511.00
2023-02-24T01:22:57.459Z,505.00
2023-02-24T01:23:57.516Z,508.00
2023-02-24T01:24:56.488Z,504.00
2023-02-24T01:25:57.568Z,507.00
2023-02-24T01:26:56.546Z,504.00
2023-02-24T01:27:56.559Z,509.00
2023-02-24T01:28:57.597Z,507.00
2023-02-24T01:29:57.620Z,508.00
2023-02-24T01:30:56.735Z,509.00
2023-02-24T01:31:58.069Z,505.00
2023-02-24T01:32:57.923Z,507.00
2023-02-24T01:33:57.804Z,505.00
2023-02-24T01:34:57.834Z,504.00
2023-02-24T01:35:57.809Z,501.00
2023-02-24T01:36:57.843Z,507.00
2023-02-24T01:37:57.900Z,502.00
2023-02-24T01:38:57.911Z,512.00
2023-02-24T01:39:57.984Z,501.00
2023-02-24T01:40:58.019Z,504.00
2023-02-24T01:41:58.004Z,504.00
2023-02-24T01:42:58.041Z,512.00
2023-02-24T01:43:58.081Z,508.00
2023-02-24T01:44:58.122Z,508.00
2023-02-24T01:45:58.142Z,508.00
2023-02-24T01:46:58.150Z,509.00
2023-02-24T01:47:58.197Z,506.00
2023-02-24T01:48:58.222Z,506.00
2023-02-24T01:49:58.287Z,508.00
2023-02-24T01:50:58.354Z,511.00
2023-02-24T01:51:58.331Z,501.00
2023-02-24T01:52:57.354Z,504.00
2023-02-24T01:53:58.406Z,506.00
2023-02-24T01:54:57.448Z,506.00
2023-02-24T01:55:58.516Z,510.00
2023-02-24T01:56:58.514Z,511.00
2023-02-24T01:57:58.588Z,510.00
2023-02-24T01:58:57.580Z,503.00
2023-02-24T01:59:57.626Z,506.00
2023-02-24T02:00:57.706Z,503.00
2023-02-24T02:01:58.921Z,508.00
2023-02-24T02:02:58.951Z,509.00
2023-02-24T02:03:57.767Z,508.00
2023-02-24T02:04:58.796Z,501.00
2023-02-24T02:05:58.850Z,509.00
2023-02-24T02:06:58.878Z,510.00
2023-02-24T02:07:58.901Z,511.00
2023-02-24T02:08:59.587Z,510.00
2023-02-24T02:09:58.961Z,509.00
2023-02-24T02:10:59.204Z,510.00
2023-02-24T02:11:59.045Z,508.00
2023-02-24T02:12:58.062Z,509.00
2023-02-24T02:13:59.136Z,511.00
2023-02-24T02:14:58.122Z,511.00
2023-02-24T02:15:59.229Z,503.00
2023-02-24T02:16:59.178Z,508.00
2023-02-24T02:17:58.206Z,501.00
2023-02-24T02:18:59.216Z,508.00
2023-02-24T02:19:59.258Z,517.00
2023-02-24T02:20:59.295Z,509.00
2023-02-24T02:21:58.324Z,511.00
2023-02-24T02:22:59.391Z,511.00
2023-02-24T02:23:59.381Z,509.00
2023-02-24T02:24:59.394Z,508.00
2023-02-24T02:25:58.426Z,509.00
2023-02-24T02:26:59.447Z,512.00
2023-02-24T02:27:59.489Z,505.00
2023-02-24T02:28:58.476Z,501.00
2023-02-24T02:29:59.485Z,510.00
2023-02-24T02:30:59.551Z,507.00
2023-02-24T02:31:58.653Z,508.00
2023-02-24T02:32:59.590Z,512.00
2023-02-24T02:33:58.564Z,511.00
2023-02-24T02:34:59.592Z,509.00
2023-02-24T02:35:58.610Z,509.00
2023-02-24T02:36:59.627Z,505.00
2023-02-24T02:37:58.698Z,503.00
2023-02-24T02:38:59.674Z,507.00
2023-02-24T02:39:59.699Z,507.00
2023-02-24T02:40:59.712Z,506.00
2023-02-24T02:41:59.717Z,500.00
2023-02-24T02:42:59.749Z,501.00
2023-02-24T02:43:59.799Z,505.00
2023-02-24T02:44:58.825Z,508.00
2023-02-24T02:45:58.959Z,508.00
2023-02-24T02:46:59.835Z,509.00
2023-02-24T02:47:59.844Z,505.00
2023-02-24T02:48:59.852Z,512.00
2023-02-24T02:49:59.865Z,509.00
2023-02-24T02:50:59.875Z,506.00
2023-02-24T02:51:59.891Z,514.00
2023-02-24T02:52:59.904Z,505.00
2023-02-24T02:53:59.921Z,510.00
2023-02-24T02:54:59.937Z,510.00
2023-02-24T02:55:58.963Z,505.00
2023-02-24T02:56:59.952Z,504.00
2023-02-24T02:58:00.515Z,510.00
2023-02-24T02:58:59.978Z,507.00
2023-02-24T02:59:59.044Z,509.00
2023-02-24T03:01:00.040Z,507.00
2023-02-24T03:01:59.998Z,509.00
2023-02-24T03:02:59.034Z,503.00
2023-02-24T03:04:00.026Z,505.00
2023-02-24T03:05:00.177Z,510.00
2023-02-24T03:06:00.077Z,512.00
2023-02-24T03:07:00.104Z,506.00
2023-02-24T03:07:59.082Z,506.00
2023-02-24T03:09:00.123Z,502.00
2023-02-24T03:10:00.146Z,506.00
2023-02-24T03:11:00.145Z,507.00
2023-02-24T03:12:00.151Z,505.00
2023-02-24T03:13:00.175Z,504.00
2023-02-24T03:13:59.151Z,507.00
2023-02-24T03:15:00.242Z,509.00
2023-02-24T03:16:00.215Z,507.00
2023-02-24T03:16:59.176Z,514.00
2023-02-24T03:18:00.181Z,509.00
2023-02-24T03:19:00.178Z,511.00
2023-02-24T03:20:00.220Z,504.00
2023-02-24T03:21:00.233Z,510.00
2023-02-24T03:21:59.203Z,508.00
2023-02-24T03:23:00.219Z,503.00
2023-02-24T03:24:00.231Z,509.00
2023-02-24T03:25:00.233Z,505.00
2023-02-24T03:26:00.247Z,505.00
2023-02-24T03:27:00.232Z,510.00
2023-02-24T03:28:00.294Z,507.00
2023-02-24T03:29:00.307Z,507.00
2023-02-24T03:30:00.286Z,504.00
2023-02-24T03:31:00.335Z,510.00
2023-02-24T03:32:00.423Z,501.00
2023-02-24T03:32:59.350Z,508.00
2023-02-24T03:33:59.285Z,504.00
2023-02-24T03:35:00.292Z,506.00
2023-02-24T03:35:59.285Z,509.00
2023-02-24T03:37:00.331Z,509.00
2023-02-24T03:38:00.297Z,511.00
2023-02-24T03:38:59.310Z,512.00
2023-02-24T03:40:00.294Z,513.00
2023-02-24T03:41:00.301Z,507.00
2023-02-24T03:41:59.299Z,512.00
2023-02-24T03:43:00.397Z,511.00
2023-02-24T03:44:00.301Z,508.00
2023-02-24T03:45:00.319Z,512.00
2023-02-24T03:45:59.395Z,506.00
2023-02-24T03:47:00.347Z,509.00
2023-02-24T03:48:00.349Z,506.00
2023-02-24T03:49:00.328Z,509.00
2023-02-24T03:50:00.335Z,506.00
2023-02-24T03:51:00.333Z,506.00
2023-02-24T03:52:00.356Z,510.00
2023-02-24T03:53:00.341Z,509.00
2023-02-24T03:54:00.342Z,509.00
2023-02-24T03:55:00.351Z,508.00
2023-02-24T03:56:00.352Z,506.00
2023-02-24T03:57:00.373Z,511.00
2023-02-24T03:58:00.375Z,506.00
2023-02-24T03:59:00.360Z,513.00
2023-02-24T03:59:59.404Z,508.00
2023-02-24T04:00:59.389Z,507.00
2023-02-24T04:02:00.425Z,514.00
2023-02-24T04:03:00.377Z,507.00
2023-02-24T04:04:00.437Z,501.00
2023-02-24T04:04:59.495Z,504.00
2023-02-24T04:05:59.377Z,505.00
2023-02-24T04:07:00.398Z,507.00
2023-02-24T04:08:00.390Z,504.00
2023-02-24T04:08:59.367Z,504.00
2023-02-24T04:10:00.382Z,504.00
2023-02-24T04:10:59.358Z,502.00
2023-02-24T04:11:59.362Z,508.00
2023-02-24T04:13:00.401Z,511.00
2023-02-24T04:14:00.373Z,512.00
2023-02-24T04:14:59.348Z,509.00
2023-02-24T04:16:00.423Z,501.00
2023-02-24T04:17:00.352Z,506.00
2023-02-24T04:18:00.354Z,506.00
2023-02-24T04:19:00.328Z,509.00
2023-02-24T04:20:00.356Z,506.00
2023-02-24T04:20:59.389Z,506.00
2023-02-24T04:22:00.356Z,505.00
2023-02-24T04:23:00.695Z,508.00
2023-02-24T04:23:59.335Z,504.00
2023-02-24T04:25:00.332Z,511.00
2023-02-24T04:26:00.800Z,508.00
2023-02-24T04:27:00.373Z,502.00
2023-02-24T04:28:00.369Z,502.00
2023-02-24T04:29:00.314Z,500.00
2023-02-24T04:29:59.316Z,512.00
2023-02-24T04:30:59.376Z,505.00
2023-02-24T04:32:00.542Z,506.00
2023-02-24T04:33:00.323Z,501.00
2023-02-24T04:34:00.322Z,509.00
2023-02-24T04:35:00.305Z,503.00
2023-02-24T04:35:59.345Z,504.00
2023-02-24T04:37:00.331Z,507.00
2023-02-24T04:38:00.326Z,509.00
2023-02-24T04:39:00.339Z,511.00
2023-02-24T04:40:00.315Z,506.00
2023-02-24T04:41:00.327Z,503.00
2023-02-24T04:42:00.335Z,500.00
2023-02-24T04:43:00.328Z,508.00
2023-02-24T04:44:00.334Z,510.00
2023-02-24T04:45:00.349Z,506.00
2023-02-24T04:46:00.435Z,502.00
2023-02-24T04:46:59.348Z,505.00
2023-02-24T04:48:00.360Z,504.00
2023-02-24T04:49:00.433Z,504.00
2023-02-24T04:50:00.350Z,507.00
2023-02-24T04:50:59.384Z,506.00
2023-02-24T04:52:00.389Z,509.00
2023-02-24T04:53:00.374Z,510.00
2023-02-24T04:54:00.374Z,504.00
2023-02-24T04:54:59.362Z,508.00
2023-02-24T04:56:00.374Z,510.00
2023-02-24T04:57:00.371Z,510.00
2023-02-24T04:58:00.390Z,505.00
2023-02-24T04:59:00.401Z,504.00
2023-02-24T05:00:00.394Z,507.00
2023-02-24T05:01:00.409Z,518.00
2023-02-24T05:01:59.422Z,510.00
2023-02-24T05:03:00.433Z,503.00
2023-02-24T05:04:00.545Z,510.00
2023-02-24T05:05:00.511Z,508.00
2023-02-24T05:06:00.575Z,504.00
2023-02-24T05:06:59.450Z,504.00
2023-02-24T05:08:00.499Z,505.00
2023-02-24T05:09:00.459Z,503.00
2023-02-24T05:10:00.488Z,511.00
2023-02-24T05:10:59.465Z,507.00
2023-02-24T05:12:00.534Z,508.00
2023-02-24T05:13:02.400Z,508.00
2023-02-24T05:14:00.493Z,510.00
2023-02-24T05:15:00.461Z,507.00
2023-02-24T05:16:00.472Z,512.00
2023-02-24T05:17:00.707Z,505.00
2023-02-24T05:18:00.460Z,508.00
2023-02-24T05:19:00.444Z,505.00
2023-02-24T05:20:00.434Z,511.00
2023-02-24T05:21:01.886Z,506.00
2023-02-24T05:21:59.491Z,513.00
2023-02-24T05:23:00.514Z,506.00
2023-02-24T05:24:00.530Z,503.00
2023-02-24T05:25:00.511Z,514.00
2023-02-24T05:26:00.500Z,506.00
2023-02-24T05:26:59.503Z,511.00
2023-02-24T05:28:00.515Z,506.00
2023-02-24T05:29:00.517Z,510.00
2023-02-24T05:30:00.517Z,509.00
2023-02-24T05:30:59.730Z,504.00
2023-02-24T05:32:00.749Z,504.00
2023-02-24T05:32:59.570Z,503.00
2023-02-24T05:34:00.549Z,510.00
2023-02-24T05:35:00.556Z,506.00
2023-02-24T05:36:00.556Z,504.00
2023-02-24T05:37:00.577Z,509.00
2023-02-24T05:38:00.564Z,507.00
2023-02-24T05:39:00.569Z,511.00
2023-02-24T05:40:00.594Z,502.00
2023-02-24T05:40:59.587Z,502.00
2023-02-24T05:42:00.589Z,507.00
2023-02-24T05:43:00.609Z,508.00
2023-02-24T05:43:59.603Z,507.00
2023-02-24T05:44:59.618Z,506.00
2023-02-24T05:45:59.651Z,505.00
2023-02-24T05:46:59.756Z,509.00
2023-02-24T05:47:59.700Z,505.00
2023-02-24T05:49:00.698Z,510.00
2023-02-24T05:49:59.706Z,505.00
2023-02-24T05:51:00.709Z,504.00
2023-02-24T05:52:00.810Z,512.00
2023-02-24T05:53:00.761Z,505.00
2023-02-24T05:54:00.785Z,508.00
2023-02-24T05:55:00.793Z,506.00
2023-02-24T05:56:00.817Z,507.00
2023-02-24T05:56:59.817Z,508.00
2023-02-24T05:58:00.831Z,506.00
2023-02-24T05:59:00.848Z,507.00
2023-02-24T06:00:00.867Z,505.00
2023-02-24T06:00:59.877Z,507.00
2023-02-24T06:02:00.988Z,511.00
2023-02-24T06:03:01.009Z,507.00
2023-02-24T06:04:00.969Z,510.00
2023-02-24T06:05:01.000Z,507.00
2023-02-24T06:06:01.045Z,512.00
2023-02-24T06:07:00.054Z,512.00
2023-02-24T06:08:01.086Z,507.00
2023-02-24T06:09:01.105Z,507.00
2023-02-24T06:10:00.243Z,509.00
2023-02-24T06:11:01.172Z,509.00
2023-02-24T06:12:01.313Z,507.00
2023-02-24T06:13:00.199Z,508.00
2023-02-24T06:14:01.197Z,513.00
2023-02-24T06:15:01.265Z,505.00
2023-02-24T06:16:00.271Z,505.00
2023-02-24T06:17:00.259Z,505.00
2023-02-24T06:18:01.296Z,508.00
2023-02-24T06:19:01.329Z,502.00
2023-02-24T06:20:01.360Z,506.00
2023-02-24T06:21:01.373Z,504.00
2023-02-24T06:22:00.395Z,503.00
2023-02-24T06:23:00.460Z,502.00
2023-02-24T06:24:00.459Z,506.00
2023-02-24T06:25:01.495Z,519.00
2023-02-24T06:26:00.501Z,517.00
2023-02-24T06:27:01.567Z,520.00
2023-02-24T06:28:01.616Z,519.00
2023-02-24T06:29:00.606Z,517.00
2023-02-24T06:30:01.615Z,507.00
2023-02-24T06:31:00.781Z,507.00
2023-02-24T06:32:01.819Z,523.00
2023-02-24T06:33:01.695Z,525.00
2023-02-24T06:34:01.720Z,528.00
2023-02-24T06:35:00.732Z,521.00
2023-02-24T06:36:01.761Z,520.00
2023-02-24T06:37:01.769Z,518.00
2023-02-24T06:38:00.787Z,518.00
2023-02-24T06:39:01.809Z,521.00
2023-02-24T06:40:01.895Z,533.00
2023-02-24T06:41:01.927Z,531.00
2023-02-24T06:42:01.891Z,532.00
2023-02-24T06:43:01.877Z,524.00
2023-02-24T06:44:01.903Z,540.00
2023-02-24T06:45:01.857Z,540.00
2023-02-24T06:46:01.189Z,543.00
2023-02-24T06:47:01.876Z,544.00
2023-02-24T06:48:01.878Z,553.00
2023-02-24T06:49:01.877Z,557.00
2023-02-24T06:50:01.933Z,556.00
2023-02-24T06:51:01.870Z,562.00
2023-02-24T06:52:01.909Z,575.00
2023-02-24T06:53:01.158Z,589.00
2023-02-24T06:54:01.024Z,596.00
2023-02-24T06:55:02.073Z,590.00
2023-02-24T06:56:02.119Z,578.00
2023-02-24T06:57:01.153Z,588.00
2023-02-24T06:58:02.213Z,598.00
2023-02-24T06:59:02.268Z,596.00
2023-02-24T07:00:01.345Z,590.00
2023-02-24T07:01:02.413Z,595.00
2023-02-24T07:02:02.420Z,585.00
2023-02-24T07:03:02.491Z,583.00
2023-02-24T07:04:02.903Z,584.00
2023-02-24T07:05:02.570Z,585.00
2023-02-24T07:06:02.619Z,587.00
2023-02-24T07:07:02.686Z,585.00
2023-02-24T07:08:01.733Z,583.00
2023-02-24T07:09:01.806Z,584.00
2023-02-24T07:10:01.853Z,581.00
2023-02-24T07:11:01.954Z,580.00
2023-02-24T07:12:02.041Z,582.00
2023-02-24T07:13:03.048Z,582.00
2023-02-24T07:14:03.196Z,581.00
2023-02-24T07:15:03.189Z,583.00
2023-02-24T07:16:02.243Z,585.00
2023-02-24T07:17:03.320Z,578.00
2023-02-24T07:18:03.339Z,579.00
2023-02-24T07:19:03.517Z,577.00
2023-02-24T07:20:03.465Z,582.00
2023-02-24T07:21:02.530Z,578.00
2023-02-24T07:22:03.864Z,578.00
2023-02-24T07:23:03.627Z,580.00
2023-02-24T07:24:03.666Z,581.00
2023-02-24T07:25:03.725Z,578.00
2023-02-24T07:26:03.791Z,585.00
2023-02-24T07:27:03.837Z,578.00
2023-02-24T07:28:03.904Z,575.00
2023-02-24T07:29:03.001Z,584.00
2023-02-24T07:30:04.064Z,579.00
2023-02-24T07:31:04.258Z,585.00
2023-02-24T07:32:04.385Z,573.00
2023-02-24T07:33:04.208Z,579.00
2023-02-24T07:34:03.263Z,576.00
2023-02-24T07:35:04.324Z,580.00
2023-02-24T07:36:03.360Z,576.00
2023-02-24T07:37:04.425Z,576.00
2023-02-24T07:38:04.524Z,580.00
2023-02-24T07:39:04.556Z,582.00
2023-02-24T07:40:04.645Z,588.00
2023-02-24T07:41:04.677Z,576.00
2023-02-24T07:42:04.711Z,579.00
2023-02-24T07:43:04.793Z,577.00
2023-02-24T07:44:04.835Z,579.00
2023-02-24T07:45:04.951Z,586.00
2023-02-24T07:46:05.021Z,580.00
2023-02-24T07:47:05.027Z,577.00
2023-02-24T07:48:05.034Z,581.00
2023-02-24T07:49:05.147Z,577.00
2023-02-24T07:50:05.190Z,581.00
2023-02-24T07:51:04.209Z,581.00
2023-02-24T07:52:05.279Z,580.00
2023-02-24T07:53:05.349Z,580.00
2023-02-24T07:54:05.791Z,591.00
2023-02-24T07:55:05.395Z,597.00
2023-02-24T07:56:05.433Z,612.00
2023-02-24T07:57:05.471Z,596.00
2023-02-24T07:58:05.493Z,589.00
2023-02-24T07:59:05.541Z,590.00
2023-02-24T08:00:04.568Z,585.00
2023-02-24T08:01:04.594Z,595.00
2023-02-24T08:02:05.677Z,587.00
2023-02-24T08:03:04.716Z,597.00
2023-02-24T08:04:05.729Z,588.00
2023-02-24T08:05:05.764Z,591.00
2023-02-24T08:06:05.791Z,586.00
2023-02-24T08:07:04.829Z,588.00
2023-02-24T08:08:04.865Z,597.00
2023-02-24T08:09:05.906Z,593.00
2023-02-24T08:10:05.968Z,590.00
2023-02-24T08:11:06.003Z,592.00
2023-02-24T08:12:06.034Z,593.00
2023-02-24T08:13:06.066Z,591.00
2023-02-24T08:14:06.094Z,591.00
2023-02-24T08:15:06.129Z,605.00
2023-02-24T08:16:06.208Z,596.00
2023-02-24T08:17:06.174Z,596.00
2023-02-24T08:18:05.169Z,591.00
2023-02-24T08:19:06.239Z,606.00
2023-02-24T08:20:06.207Z,604.00
2023-02-24T08:21:06.223Z,604.00
2023-02-24T08:22:06.227Z,608.00
2023-02-24T08:23:06.248Z,598.00
2023-02-24T08:24:06.240Z,609.00
2023-02-24T08:25:05.198Z,606.00
2023-02-24T08:26:06.266Z,612.00
2023-02-24T08:27:06.270Z,608.00
2023-02-24T08:28:09.715Z,617.00
2023-02-24T08:29:06.212Z,617.00
2023-02-24T08:30:06.202Z,618.00
2023-02-24T08:31:06.292Z,618.00
2023-02-24T08:32:06.311Z,620.00
2023-02-24T08:33:06.181Z,625.00
2023-02-24T08:34:06.171Z,633.00
2023-02-24T08:35:06.240Z,627.00
2023-02-24T08:36:05.208Z,631.00
2023-02-24T08:37:06.182Z,624.00
2023-02-24T08:38:05.157Z,635.00
2023-02-24T08:39:06.176Z,623.00
2023-02-24T08:40:06.140Z,631.00
2023-02-24T08:41:05.173Z,632.00
2023-02-24T08:42:06.169Z,635.00
2023-02-24T08:43:06.123Z,628.00
2023-02-24T08:44:05.193Z,628.00
2023-02-24T08:45:05.208Z,632.00
2023-02-24T08:46:05.285Z,635.00
2023-02-24T08:47:06.446Z,627.00
2023-02-24T08:48:06.350Z,635.00
2023-02-24T08:49:06.786Z,620.00
2023-02-24T08:50:06.476Z,637.00
2023-02-24T08:51:06.539Z,622.00
2023-02-24T08:52:05.812Z,625.00
2023-02-24T08:53:06.613Z,643.00
2023-02-24T08:54:07.301Z,650.00
2023-02-24T08:55:06.992Z,650.00
2023-02-24T08:56:06.776Z,666.00
2023-02-24T08:57:06.957Z,678.00
2023-02-24T08:58:05.851Z,666.00
2023-02-24T08:59:06.908Z,664.00
2023-02-24T09:00:06.933Z,682.00
2023-02-24T09:01:07.042Z,683.00
2023-02-24T09:02:07.009Z,695.00
2023-02-24T09:03:07.048Z,741.00
2023-02-24T09:04:07.111Z,720.00
2023-02-24T09:05:06.160Z,700.00
2023-02-24T09:06:07.157Z,680.00
2023-02-24T09:07:11.647Z,700.00
2023-02-24T09:08:07.147Z,701.00
2023-02-24T09:09:07.139Z,698.00
2023-02-24T09:10:06.142Z,710.00
2023-02-24T09:11:07.180Z,717.00
2023-02-24T09:12:07.118Z,716.00
2023-02-24T09:13:07.131Z,705.00
2023-02-24T09:14:09.203Z,710.00
2023-02-24T09:15:06.111Z,712.00
2023-02-24T09:16:06.482Z,701.00
2023-02-24T09:17:07.404Z,687.00
2023-02-24T09:18:07.070Z,721.00
2023-02-24T09:19:07.122Z,719.00
2023-02-24T09:20:06.056Z,726.00
2023-02-24T09:21:07.215Z,716.00
2023-02-24T09:22:13.306Z,696.00
2023-02-24T09:23:07.268Z,698.00
2023-02-24T09:24:07.281Z,705.00
2023-02-24T09:25:06.051Z,708.00
2023-02-24T09:26:07.006Z,690.00
2023-02-24T09:27:07.011Z,653.00
2023-02-24T09:28:07.015Z,609.00
2023-02-24T09:29:07.393Z,614.00
2023-02-24T09:30:07.149Z,625.00
2023-02-24T09:31:07.193Z,626.00
2023-02-24T09:32:07.388Z,617.00
2023-02-24T09:33:07.122Z,601.00
2023-02-24T09:34:07.172Z,593.00
2023-02-24T09:35:06.964Z,586.00
2023-02-24T09:36:05.955Z,596.00
2023-02-24T09:37:06.944Z,588.00
2023-02-24T09:38:05.945Z,576.00
2023-02-24T09:40:05.908Z,580.00
2023-02-24T09:41:18.323Z,565.00
2023-02-24T09:42:06.927Z,565.00
2023-02-24T09:43:06.961Z,565.00
2023-02-24T09:44:06.906Z,564.00
2023-02-24T09:45:06.904Z,530.00
2023-02-24T09:46:05.989Z,520.00
2023-02-24T09:47:06.897Z,505.00
2023-02-24T09:48:06.864Z,512.00
2023-02-24T09:49:06.897Z,527.00
2023-02-24T09:50:05.845Z,500.00
2023-02-24T09:51:06.869Z,500.00
2023-02-24T09:52:07.015Z,501.00
2023-02-24T09:53:11.441Z,507.00
2023-02-24T09:54:07.057Z,507.00
2023-02-24T09:55:07.114Z,504.00
2023-02-24T09:56:07.235Z,476.00
2023-02-24T09:57:07.275Z,469.00
2023-02-24T09:58:07.308Z,493.00
2023-02-24T09:59:07.346Z,518.00
2023-02-24T10:00:07.258Z,550.00
2023-02-24T10:01:07.380Z,562.00
2023-02-24T10:02:07.259Z,581.00
2023-02-24T10:03:07.287Z,711.00
2023-02-24T10:04:20.265Z,1134.00
2023-02-24T10:05:07.664Z,1142.00
2023-02-24T10:06:07.332Z,1230.00
2023-02-24T10:08:07.514Z,1486.00
2023-02-24T10:09:07.283Z,1528.00
2023-02-24T10:10:06.649Z,1575.00
2023-02-24T10:11:07.397Z,1637.00
2023-02-24T10:12:07.242Z,1369.00
2023-02-24T10:13:07.275Z,1651.00
2023-02-24T10:14:07.341Z,1716.00
2023-02-24T10:15:07.383Z,1825.00
2023-02-24T10:16:07.458Z,1833.00
2023-02-24T10:17:07.231Z,1758.00
2023-02-24T10:18:07.207Z,1486.00
2023-02-24T10:19:07.221Z,1878.00
2023-02-24T10:20:07.403Z,1591.00
2023-02-24T10:21:07.238Z,1386.00
2023-02-24T10:22:06.176Z,1480.00
2023-02-24T10:23:07.180Z,1580.00
2023-02-24T10:24:06.170Z,1415.00
2023-02-24T10:25:07.204Z,1494.00
2023-02-24T10:26:07.588Z,1453.00
2023-02-24T10:27:08.996Z,1317.00
2023-02-24T10:28:07.150Z,1282.00
2023-02-24T10:29:07.130Z,1308.00
2023-02-24T10:30:06.194Z,1407.00
2023-02-24T10:31:07.269Z,1221.00
2023-02-24T10:32:06.422Z,1234.00
2023-02-24T10:33:07.109Z,1107.00
2023-02-24T10:34:07.112Z,1056.00
2023-02-24T10:35:07.156Z,1026.00
2023-02-24T10:36:07.098Z,943.00
2023-02-24T10:37:08.901Z,890.00
2023-02-24T10:38:07.092Z,827.00
2023-02-24T10:40:06.109Z,785.00
2023-02-24T10:41:07.080Z,732.00
2023-02-24T10:42:06.127Z,713.00
2023-02-24T10:43:06.085Z,686.00
2023-02-24T10:45:09.789Z,653.00
2023-02-24T10:48:07.013Z,596.00
2023-02-24T10:49:07.010Z,601.00
2023-02-24T10:50:07.358Z,616.00
2023-02-24T10:51:06.989Z,609.00
2023-02-24T10:52:06.986Z,586.00
2023-02-24T10:53:06.992Z,587.00
2023-02-24T10:55:07.026Z,606.00
2023-02-24T11:01:07.091Z,638.00
2023-02-24T11:02:07.040Z,634.00
2023-02-24T11:03:07.032Z,648.00
2023-02-24T11:04:06.909Z,748.00
2023-02-24T11:05:06.910Z,714.00
2023-02-24T11:06:06.909Z,689.00
2023-02-24T11:07:06.889Z,689.00
2023-02-24T11:09:06.887Z,1065.00
2023-02-24T11:10:08.520Z,881.00
2023-02-24T11:11:07.003Z,841.00
2023-02-24T11:12:06.893Z,929.00
2023-02-24T11:14:06.849Z,983.00
2023-02-24T11:15:06.886Z,1110.00
2023-02-24T11:16:06.930Z,865.00
2023-02-24T11:17:06.834Z,858.00
2023-02-24T11:18:06.842Z,891.00
2023-02-24T11:19:05.827Z,906.00
2023-02-24T11:20:06.805Z,947.00
2023-02-24T11:22:06.806Z,868.00
2023-02-24T11:23:05.930Z,782.00
2023-02-24T11:24:05.889Z,751.00
2023-02-24T11:25:06.789Z,846.00
2023-02-24T11:27:09.892Z,795.00
2023-02-24T11:28:06.805Z,782.00
2023-02-24T11:29:06.854Z,795.00
2023-02-24T11:30:05.798Z,801.00
2023-02-24T11:31:06.926Z,847.00
2023-02-24T11:32:06.937Z,806.00
2023-02-24T11:35:05.926Z,741.00
2023-02-24T11:36:06.853Z,690.00
2023-02-24T11:37:06.947Z,707.00
2023-02-24T11:38:07.323Z,692.00
2023-02-24T11:39:18.130Z,674.00
2023-02-24T11:40:06.726Z,676.00
2023-02-24T11:41:07.304Z,675.00
2023-02-24T11:42:07.109Z,640.00
2023-02-24T11:43:07.297Z,638.00
2023-02-24T11:44:06.669Z,605.00
2023-02-24T11:45:05.863Z,600.00
2023-02-24T11:46:07.255Z,581.00
2023-02-24T11:47:06.671Z,581.00
2023-02-24T11:48:06.623Z,603.00
2023-02-24T11:49:05.628Z,589.00
2023-02-24T11:50:06.617Z,588.00
2023-02-24T11:51:06.623Z,601.00
2023-02-24T11:52:06.602Z,600.00
2023-02-24T11:53:06.591Z,539.00
2023-02-24T11:54:06.598Z,495.00
2023-02-24T11:55:06.581Z,514.00
2023-02-24T11:56:06.590Z,541.00
2023-02-24T11:57:06.567Z,557.00
2023-02-24T11:58:06.567Z,573.00
2023-02-24T11:59:06.565Z,591.00
2023-02-24T12:00:06.567Z,612.00
2023-02-24T12:02:06.546Z,617.00
2023-02-24T12:03:06.613Z,619.00
2023-02-24T12:04:06.535Z,621.00
2023-02-24T12:05:06.568Z,607.00
2023-02-24T12:06:06.577Z,610.00
2023-02-24T12:07:06.800Z,626.00
2023-02-24T12:08:06.532Z,607.00
2023-02-24T12:09:06.512Z,624.00
2023-02-24T12:10:16.236Z,641.00
2023-02-24T12:11:06.509Z,641.00
2023-02-24T12:12:06.494Z,642.00
2023-02-24T12:13:05.494Z,633.00
2023-02-24T12:14:06.500Z,624.00
2023-02-24T12:15:06.483Z,641.00
2023-02-24T12:16:06.523Z,625.00
2023-02-24T12:17:06.464Z,634.00
2023-02-24T12:18:06.462Z,635.00
2023-02-24T12:19:06.523Z,637.00
2023-02-24T12:20:05.456Z,629.00
2023-02-24T12:21:06.445Z,632.00
2023-02-24T12:22:05.427Z,626.00
2023-02-24T12:24:08.576Z,636.00
2023-02-24T12:25:06.491Z,619.00
2023-02-24T12:27:06.455Z,638.00
2023-02-24T12:28:06.503Z,625.00
2023-02-24T12:29:06.452Z,631.00
2023-02-24T12:30:06.770Z,624.00
2023-02-24T12:31:06.514Z,624.00
2023-02-24T12:32:06.564Z,619.00
2023-02-24T12:33:05.431Z,625.00
2023-02-24T12:34:06.449Z,622.00
2023-02-24T12:35:06.443Z,613.00
2023-02-24T12:36:06.400Z,585.00
2023-02-24T12:37:06.375Z,546.00
2023-02-24T12:38:06.385Z,585.00
2023-02-24T12:39:06.363Z,598.00
2023-02-24T12:40:06.403Z,606.00
2023-02-24T12:41:06.380Z,595.00
2023-02-24T12:42:06.382Z,585.00
2023-02-24T12:45:06.371Z,590.00
2023-02-24T12:46:06.504Z,592.00
2023-02-24T12:47:05.330Z,591.00
2023-02-24T12:48:06.309Z,597.00
2023-02-24T12:57:05.261Z,598.00
2023-02-24T12:58:06.268Z,597.00
2023-02-24T13:58:05.123Z,588.00